Time;durP1;ratioP1;P1;durP2;ratioP2;P2;SDS_P1;SDS_P2;PMS_P1;PMS_P2;Temp;Humidity;BMP_temperature;BMP_pressure;BME280_temperature;BME280_humidity;BME280_pressure;Samples;Min_cycle;Max_cycle;Signal;HPM_P1;HPM_P2
2023/07/21 00:00:12;;;;;;;22.25;20.75;;;14.50;99.90;;;;;;5034708;28;20037;-74
2023/07/21 00:02:42;;;;;;;22.17;20.67;;;14.70;99.90;;;;;;5043520;28;20104;-72
2023/07/21 00:05:09;;;;;;;22.17;20.63;;;14.70;99.90;;;;;;5033029;28;20136;-73
2023/07/21 00:07:36;;;;;;;22.98;21.58;;;14.80;99.90;;;;;;5040998;28;20529;-74
2023/07/21 00:10:07;;;;;;;23.92;22.40;;;14.80;99.90;;;;;;5024802;28;20049;-73
2023/07/21 00:12:47;;;;;;;24.63;22.95;;;14.90;99.90;;;;;;5032177;28;20535;-72
2023/07/21 00:15:17;;;;;;;24.13;22.52;;;14.90;99.90;;;;;;5030592;28;20068;-73
2023/07/21 00:17:46;;;;;;;25.15;23.08;;;14.90;99.90;;;;;;5020121;28;20622;-73
2023/07/21 00:20:24;;;;;;;24.33;22.73;;;15.00;99.90;;;;;;5028135;28;20045;-72
2023/07/21 00:22:51;;;;;;;24.45;22.63;;;15.00;99.90;;;;;;5027453;28;20111;-72
2023/07/21 00:25:18;;;;;;;25.52;23.52;;;14.90;99.90;;;;;;5039827;28;20087;-72
2023/07/21 00:27:45;;;;;;;25.45;23.75;;;14.90;99.90;;;;;;5041434;28;20045;-72
2023/07/21 00:30:13;;;;;;;25.58;23.85;;;14.90;99.90;;;;;;5037274;28;20099;-72
2023/07/21 00:32:41;;;;;;;25.35;23.63;;;14.90;99.90;;;;;;5026109;28;20049;-73
2023/07/21 00:35:10;;;;;;;25.48;23.65;;;15.00;99.90;;;;;;5035400;28;20102;-72
2023/07/21 00:37:38;;;;;;;24.02;22.52;;;15.00;99.90;;;;;;5034582;28;20055;-73
2023/07/21 00:40:10;;;;;;;23.98;22.50;;;15.00;99.90;;;;;;5031347;28;21694;-72
2023/07/21 00:42:37;;;;;;;25.98;24.08;;;15.00;99.90;;;;;;5037290;28;20056;-72
2023/07/21 00:45:04;;;;;;;25.63;23.88;;;14.90;99.90;;;;;;5041193;28;20060;-71
2023/07/21 00:47:35;;;;;;;26.15;24.33;;;14.90;99.90;;;;;;5028388;28;20064;-71
2023/07/21 00:50:02;;;;;;;26.98;24.98;;;14.90;99.90;;;;;;5037759;28;20045;-71
2023/07/21 00:52:29;;;;;;;24.70;22.98;;;14.80;99.90;;;;;;5027975;28;20085;-71
2023/07/21 00:54:56;;;;;;;24.27;22.48;;;14.80;99.90;;;;;;5035614;28;20776;-70
2023/07/21 00:57:24;;;;;;;24.67;22.85;;;14.70;99.90;;;;;;5047703;28;20049;-70
2023/07/21 00:59:51;;;;;;;25.00;23.15;;;14.60;99.90;;;;;;5032911;28;20560;-72
2023/07/21 01:02:18;;;;;;;25.08;23.23;;;14.50;99.90;;;;;;5034469;28;20060;-72
2023/07/21 01:04:46;;;;;;;25.58;23.75;;;14.50;99.90;;;;;;5030794;28;20112;-70
2023/07/21 01:07:15;;;;;;;23.00;21.25;;;14.50;99.90;;;;;;5030913;28;20048;-71
2023/07/21 01:09:43;;;;;;;23.35;21.80;;;14.50;99.90;;;;;;5041687;28;20048;-72
2023/07/21 01:12:11;;;;;;;23.25;21.50;;;14.40;99.90;;;;;;5035618;28;20043;-71
2023/07/21 01:14:38;;;;;;;24.33;22.63;;;14.40;99.90;;;;;;5037687;28;20048;-71
2023/07/21 01:17:07;;;;;;;24.42;22.63;;;14.40;99.90;;;;;;5049850;28;20136;-71
2023/07/21 01:19:36;;;;;;;24.98;23.27;;;14.50;99.90;;;;;;5052249;28;20140;-73
2023/07/21 01:22:18;;;;;;;23.63;21.98;;;14.40;99.90;;;;;;5027062;28;20767;-72
2023/07/21 01:24:54;;;;;;;23.15;21.25;;;14.40;99.90;;;;;;5042526;28;20646;-70
2023/07/21 01:27:24;;;;;;;23.55;21.95;;;14.30;99.90;;;;;;5046110;28;20040;-70
2023/07/21 01:29:53;;;;;;;24.77;22.98;;;14.30;99.90;;;;;;5041270;28;20049;-71
2023/07/21 01:32:25;;;;;;;24.50;22.70;;;14.40;99.90;;;;;;5052499;28;20068;-71
2023/07/21 01:34:55;;;;;;;23.23;21.63;;;14.40;99.90;;;;;;5051104;28;20045;-69
2023/07/21 01:37:24;;;;;;;24.10;22.23;;;14.30;99.90;;;;;;5052313;28;20056;-71
2023/07/21 01:39:52;;;;;;;24.25;22.27;;;14.20;99.90;;;;;;5055966;28;20048;-70
2023/07/21 01:42:20;;;;;;;23.05;21.45;;;14.10;99.90;;;;;;5029054;28;20126;-71
2023/07/21 01:44:47;;;;;;;24.42;22.52;;;14.00;99.90;;;;;;5034403;28;20046;-69
2023/07/21 01:47:14;;;;;;;23.58;21.95;;;13.90;99.90;;;;;;5035867;28;20038;-70
2023/07/21 01:49:41;;;;;;;22.83;21.13;;;13.90;99.90;;;;;;5043367;28;20045;-70
2023/07/21 01:52:08;;;;;;;22.02;20.45;;;13.90;99.90;;;;;;5044921;28;20680;-70
2023/07/21 01:55:02;;;;;;;22.63;21.02;;;13.90;99.90;;;;;;5032549;28;20060;-70
2023/07/21 01:57:35;;;;;;;23.02;21.00;;;13.90;99.90;;;;;;5030997;28;20057;-71
2023/07/21 02:00:06;;;;;;;23.55;21.65;;;13.90;99.90;;;;;;5034147;28;20045;-71
2023/07/21 02:02:42;;;;;;;23.00;21.20;;;13.80;99.90;;;;;;5031429;28;20029;-72
2023/07/21 02:05:23;;;;;;;22.45;20.85;;;13.80;99.90;;;;;;5031242;28;21505;-73
2023/07/21 02:07:53;;;;;;;22.63;20.75;;;13.70;99.90;;;;;;5050260;28;20037;-72
2023/07/21 02:10:20;;;;;;;23.02;21.00;;;13.60;99.90;;;;;;5041782;28;20685;-71
2023/07/21 02:12:55;;;;;;;23.17;21.27;;;13.60;99.90;;;;;;5036945;28;20090;-70
2023/07/21 02:15:22;;;;;;;22.85;21.15;;;13.60;99.90;;;;;;5035336;28;20045;-73
2023/07/21 02:17:50;;;;;;;22.70;20.95;;;13.70;99.90;;;;;;5026907;28;20085;-73
2023/07/21 02:20:17;;;;;;;22.38;20.63;;;13.70;99.90;;;;;;5042537;28;20163;-70
2023/07/21 02:22:43;;;;;;;22.80;20.95;;;13.80;99.90;;;;;;5045064;28;20048;-73
2023/07/21 02:25:13;;;;;;;22.08;20.48;;;13.90;99.90;;;;;;5032454;28;20979;-72
2023/07/21 02:27:40;;;;;;;23.58;21.75;;;13.70;99.90;;;;;;5031175;28;20700;-71
2023/07/21 02:30:07;;;;;;;23.48;21.67;;;13.80;99.90;;;;;;5034850;28;20775;-71
2023/07/21 02:32:34;;;;;;;23.52;21.73;;;13.90;99.90;;;;;;5030376;28;20072;-71
2023/07/21 02:35:01;;;;;;;21.92;20.25;;;13.80;99.90;;;;;;5046301;28;20123;-70
2023/07/21 02:37:28;;;;;;;23.58;21.67;;;13.80;99.90;;;;;;5038246;28;20049;-70
2023/07/21 02:39:55;;;;;;;23.13;21.33;;;13.80;99.90;;;;;;5025297;28;20545;-71
2023/07/21 02:42:22;;;;;;;22.00;20.10;;;13.90;99.90;;;;;;5032431;28;20045;-72
2023/07/21 02:44:50;;;;;;;23.58;21.63;;;13.90;99.90;;;;;;5034910;28;20041;-73
2023/07/21 02:47:17;;;;;;;22.30;20.38;;;13.90;99.90;;;;;;5028494;28;21336;-71
2023/07/21 02:49:44;;;;;;;21.70;19.88;;;13.90;99.90;;;;;;5035894;28;20057;-72
2023/07/21 02:52:12;;;;;;;21.65;19.75;;;13.70;99.90;;;;;;5031019;28;20514;-72
2023/07/21 02:54:44;;;;;;;21.33;19.20;;;13.50;99.90;;;;;;5025374;28;20067;-72
2023/07/21 02:57:11;;;;;;;22.48;20.48;;;13.40;99.90;;;;;;5028934;28;20045;-72
2023/07/21 02:59:37;;;;;;;21.77;19.83;;;13.40;99.90;;;;;;5030826;28;20542;-72
2023/07/21 03:02:05;;;;;;;21.33;19.55;;;13.40;99.90;;;;;;5032354;28;20037;-73
2023/07/21 03:04:45;;;;;;;20.95;19.23;;;13.40;99.90;;;;;;5040774;28;20087;-73
2023/07/21 03:07:14;;;;;;;21.02;19.23;;;13.20;99.90;;;;;;5011801;28;21529;-70
2023/07/21 03:09:45;;;;;;;19.48;17.77;;;13.20;99.90;;;;;;5033714;28;20037;-72
2023/07/21 03:12:20;;;;;;;20.75;19.10;;;13.40;99.90;;;;;;5037562;28;20044;-73
2023/07/21 03:15:06;;;;;;;20.15;18.55;;;13.40;99.90;;;;;;5031840;28;20063;-70
2023/07/21 03:17:48;;;;;;;19.83;18.15;;;13.30;99.90;;;;;;5025782;28;20076;-72
2023/07/21 03:20:15;;;;;;;19.65;18.15;;;13.30;99.90;;;;;;5033456;28;20080;-73
2023/07/21 03:22:44;;;;;;;20.00;18.38;;;13.20;99.90;;;;;;5027704;28;20140;-72
2023/07/21 03:25:13;;;;;;;19.50;17.92;;;13.20;99.90;;;;;;5027802;28;20049;-73
2023/07/21 03:27:40;;;;;;;21.23;19.58;;;13.20;99.90;;;;;;5031283;28;20108;-70
2023/07/21 03:30:10;;;;;;;21.15;19.35;;;13.20;99.90;;;;;;5031844;28;20166;-74
2023/07/21 03:32:46;;;;;;;21.45;19.73;;;13.30;99.90;;;;;;5035622;28;20041;-70
2023/07/21 03:35:14;;;;;;;20.13;18.50;;;13.30;99.90;;;;;;5031902;28;20519;-71
2023/07/21 03:37:44;;;;;;;22.42;20.63;;;13.40;99.90;;;;;;5032395;28;20131;-70
2023/07/21 03:40:11;;;;;;;20.65;18.75;;;13.30;99.90;;;;;;5030168;28;20044;-70
2023/07/21 03:42:38;;;;;;;20.52;18.73;;;13.30;99.90;;;;;;5044951;28;20041;-71
2023/07/21 03:45:05;;;;;;;20.85;18.80;;;13.30;99.90;;;;;;5027125;28;20657;-73
2023/07/21 03:47:36;;;;;;;21.13;19.02;;;13.30;99.90;;;;;;5045325;28;20783;-70
2023/07/21 03:50:04;;;;;;;19.80;18.10;;;13.30;99.90;;;;;;5047161;28;20038;-73
2023/07/21 03:52:32;;;;;;;19.00;17.20;;;13.10;99.90;;;;;;5025239;28;20069;-72
2023/07/21 03:55:00;;;;;;;19.83;17.92;;;13.10;99.90;;;;;;5041107;28;20195;-70
2023/07/21 03:57:26;;;;;;;20.35;18.60;;;13.10;99.90;;;;;;5040701;28;20047;-71
2023/07/21 03:59:53;;;;;;;21.13;19.33;;;13.10;99.90;;;;;;5032911;28;20053;-72
2023/07/21 04:02:20;;;;;;;21.25;19.52;;;13.20;99.90;;;;;;5039371;28;20102;-73
2023/07/21 04:04:48;;;;;;;21.92;19.85;;;13.10;99.90;;;;;;5037423;28;20072;-71
2023/07/21 04:07:15;;;;;;;20.90;18.98;;;13.20;99.90;;;;;;5029570;28;20041;-72
2023/07/21 04:09:42;;;;;;;21.85;20.13;;;13.40;99.90;;;;;;5038912;28;20647;-73
2023/07/21 04:12:09;;;;;;;21.48;19.67;;;13.30;99.90;;;;;;5025243;28;20046;-73
2023/07/21 04:14:36;;;;;;;21.15;19.35;;;13.30;99.90;;;;;;5038109;28;20580;-70
2023/07/21 04:17:03;;;;;;;20.73;19.13;;;13.30;99.90;;;;;;5037703;28;20036;-71
2023/07/21 04:19:30;;;;;;;20.88;19.23;;;13.30;99.90;;;;;;5033324;28;20084;-71
2023/07/21 04:21:57;;;;;;;20.42;18.70;;;13.30;99.90;;;;;;5031034;28;20133;-71
2023/07/21 04:24:24;;;;;;;21.30;19.38;;;13.50;99.90;;;;;;5037267;28;20124;-71
2023/07/21 04:26:51;;;;;;;21.45;19.73;;;13.50;99.90;;;;;;5032406;28;20044;-70
2023/07/21 04:29:17;;;;;;;21.83;20.10;;;13.60;99.90;;;;;;5034073;28;20037;-70
2023/07/21 04:32:02;;;;;;;20.90;19.02;;;13.40;99.90;;;;;;5048987;28;20064;-70
2023/07/21 04:34:30;;;;;;;21.27;19.33;;;13.40;99.90;;;;;;5021227;28;20053;-71
2023/07/21 04:36:57;;;;;;;20.02;18.42;;;13.50;99.90;;;;;;5019328;28;20056;-71
2023/07/21 04:39:33;;;;;;;21.10;19.15;;;13.60;99.90;;;;;;5030158;28;20139;-70
2023/07/21 04:42:00;;;;;;;19.92;18.23;;;13.60;99.90;;;;;;5011903;28;20052;-71
2023/07/21 04:44:27;;;;;;;20.42;18.50;;;13.60;99.90;;;;;;5052703;28;20571;-70
2023/07/21 04:46:55;;;;;;;20.45;18.75;;;13.60;99.90;;;;;;5037458;28;20040;-71
2023/07/21 04:49:24;;;;;;;19.40;17.80;;;13.60;99.90;;;;;;5041835;28;20040;-71
2023/07/21 04:51:52;;;;;;;20.33;18.55;;;13.40;99.90;;;;;;5042181;28;20045;-71
2023/07/21 04:54:19;;;;;;;18.70;17.20;;;13.40;99.90;;;;;;5021221;28;20043;-70
2023/07/21 04:56:46;;;;;;;18.48;16.88;;;13.50;99.90;;;;;;5028118;28;20081;-70
2023/07/21 04:59:14;;;;;;;18.58;16.88;;;13.50;99.90;;;;;;5031655;28;20131;-71
2023/07/21 05:01:42;;;;;;;17.52;16.10;;;13.50;99.90;;;;;;5040143;28;20583;-73
2023/07/21 05:04:09;;;;;;;17.48;16.05;;;13.40;99.90;;;;;;5032905;28;20033;-71
2023/07/21 05:06:37;;;;;;;17.55;16.15;;;13.40;99.90;;;;;;5038923;28;20136;-72
2023/07/21 05:09:04;;;;;;;17.30;15.80;;;13.30;99.90;;;;;;5035667;28;20041;-70
2023/07/21 05:11:31;;;;;;;17.15;15.70;;;13.20;99.90;;;;;;5038989;28;20052;-72
2023/07/21 05:13:58;;;;;;;16.85;15.40;;;13.30;99.90;;;;;;5022506;28;20072;-71
2023/07/21 05:16:36;;;;;;;17.50;16.08;;;13.40;99.90;;;;;;5038222;28;20044;-72
2023/07/21 05:19:21;;;;;;;18.55;16.85;;;13.50;99.90;;;;;;5027550;28;22517;-71
2023/07/21 05:22:06;;;;;;;18.52;16.73;;;13.50;99.90;;;;;;5033078;28;20060;-71
2023/07/21 05:24:53;;;;;;;19.15;17.60;;;13.80;99.90;;;;;;5036269;28;20510;-72
2023/07/21 05:27:21;;;;;;;17.80;16.45;;;14.00;99.90;;;;;;5025840;28;20053;-72
2023/07/21 05:29:52;;;;;;;18.65;17.27;;;14.10;99.90;;;;;;5030414;28;20038;-72
2023/07/21 05:32:19;;;;;;;18.55;17.17;;;14.20;99.90;;;;;;5047726;28;20066;-72
2023/07/21 05:34:53;;;;;;;18.83;17.42;;;14.40;99.90;;;;;;5050767;28;20051;-72
2023/07/21 05:37:20;;;;;;;20.42;19.02;;;14.50;99.90;;;;;;5035191;28;20151;-72
2023/07/21 05:39:50;;;;;;;20.70;19.30;;;14.60;99.90;;;;;;5040689;28;20040;-71
2023/07/21 05:42:21;;;;;;;21.90;20.30;;;14.70;99.90;;;;;;5031824;28;20044;-72
2023/07/21 05:44:49;;;;;;;22.80;21.10;;;14.80;99.90;;;;;;5032995;28;20123;-72
2023/07/21 05:47:18;;;;;;;22.90;21.38;;;14.90;99.90;;;;;;5026320;28;20038;-72
2023/07/21 05:49:50;;;;;;;22.45;21.05;;;15.00;99.90;;;;;;5018430;28;20051;-72
2023/07/21 05:52:17;;;;;;;23.67;22.17;;;15.10;99.90;;;;;;5029166;28;20040;-72
2023/07/21 05:54:46;;;;;;;23.85;22.15;;;15.10;99.90;;;;;;5026016;28;20038;-72
2023/07/21 05:57:14;;;;;;;23.73;22.17;;;15.00;99.90;;;;;;5031864;28;20044;-71
2023/07/21 05:59:47;;;;;;;24.58;22.98;;;15.00;99.90;;;;;;5052649;28;20213;-72
2023/07/21 06:02:14;;;;;;;24.77;22.98;;;15.00;99.90;;;;;;5027167;28;20048;-72
2023/07/21 06:04:47;;;;;;;24.25;22.60;;;15.10;99.90;;;;;;5039031;28;20052;-73
2023/07/21 06:07:35;;;;;;;24.63;22.73;;;15.10;99.90;;;;;;5036458;28;20045;-71
2023/07/21 06:10:12;;;;;;;23.13;21.42;;;15.10;99.90;;;;;;5019998;28;20048;-72
2023/07/21 06:12:48;;;;;;;22.25;20.75;;;15.20;99.90;;;;;;5050603;28;20049;-72
2023/07/21 06:15:42;;;;;;;22.92;21.48;;;15.20;99.90;;;;;;5002162;28;20041;-72
2023/07/21 06:18:29;;;;;;;22.40;21.00;;;15.40;99.90;;;;;;5030823;28;20742;-72
2023/07/21 06:20:55;;;;;;;23.60;22.10;;;15.40;99.90;;;;;;5032305;28;20103;-72
2023/07/21 06:23:23;;;;;;;23.85;22.17;;;15.40;99.90;;;;;;5026476;28;20495;-73
2023/07/21 06:25:50;;;;;;;25.33;23.42;;;15.40;99.90;;;;;;5030814;28;20036;-71
2023/07/21 06:28:18;;;;;;;24.30;22.70;;;15.40;99.90;;;;;;5042928;28;20045;-71
2023/07/21 06:30:44;;;;;;;23.85;22.25;;;15.60;99.90;;;;;;5038920;28;20056;-71
2023/07/21 06:33:23;;;;;;;24.73;23.10;;;15.60;99.90;;;;;;5024934;28;20092;-72
2023/07/21 06:36:07;;;;;;;24.55;22.95;;;15.80;99.90;;;;;;5030492;28;20073;-72
2023/07/21 06:38:44;;;;;;;23.83;22.20;;;15.90;99.90;;;;;;5028580;28;20049;-72
2023/07/21 06:41:29;;;;;;;22.50;21.05;;;15.90;99.90;;;;;;5033976;28;20474;-72
2023/07/21 06:44:20;;;;;;;23.05;21.60;;;16.00;99.90;;;;;;5048306;28;20517;-73
2023/07/21 06:47:04;;;;;;;23.70;22.17;;;16.10;99.90;;;;;;5028322;28;20041;-71
2023/07/21 06:49:49;;;;;;;23.17;21.77;;;16.40;99.90;;;;;;5046911;28;20041;-73
2023/07/21 06:52:21;;;;;;;23.50;21.90;;;16.40;99.90;;;;;;5031256;28;20053;-73
2023/07/21 06:54:49;;;;;;;23.40;21.90;;;16.50;99.90;;;;;;5037537;28;20250;-72
2023/07/21 06:57:16;;;;;;;24.52;22.58;;;16.70;99.90;;;;;;5028737;28;20053;-73
2023/07/21 06:59:42;;;;;;;25.27;23.38;;;16.70;99.90;;;;;;5021557;28;20462;-71
2023/07/21 07:02:09;;;;;;;24.13;22.58;;;16.90;99.90;;;;;;5027888;28;20122;-72
2023/07/21 07:04:38;;;;;;;25.88;24.48;;;17.10;99.90;;;;;;5044056;28;20135;-71
2023/07/21 07:07:05;;;;;;;24.45;22.92;;;17.40;99.90;;;;;;5026918;28;20474;-71
2023/07/21 07:09:32;;;;;;;25.48;23.88;;;17.60;99.90;;;;;;5049212;28;20041;-71
2023/07/21 07:11:59;;;;;;;27.75;25.80;;;17.90;99.90;;;;;;5028481;28;20109;-71
2023/07/21 07:14:27;;;;;;;26.77;25.10;;;18.00;99.90;;;;;;5027857;28;20065;-72
2023/07/21 07:16:53;;;;;;;28.98;26.98;;;18.10;99.90;;;;;;5034323;28;20060;-71
2023/07/21 07:19:23;;;;;;;28.58;26.77;;;18.00;99.90;;;;;;5035495;28;20044;-70
2023/07/21 07:21:53;;;;;;;28.77;26.88;;;18.20;99.90;;;;;;5029328;28;20075;-71
2023/07/21 07:24:20;;;;;;;28.63;26.95;;;18.30;99.90;;;;;;5026940;28;20045;-71
2023/07/21 07:26:47;;;;;;;29.13;27.17;;;18.30;99.90;;;;;;5031781;28;20055;-70
2023/07/21 07:29:17;;;;;;;28.77;26.88;;;18.40;99.90;;;;;;5021988;28;20056;-71
2023/07/21 07:31:44;;;;;;;30.77;28.90;;;18.50;99.90;;;;;;5036169;28;20067;-72
2023/07/21 07:34:11;;;;;;;31.40;29.38;;;18.70;99.90;;;;;;5032501;28;20044;-72
2023/07/21 07:36:38;;;;;;;30.95;29.02;;;18.70;99.90;;;;;;5036341;28;20135;-70
2023/07/21 07:39:05;;;;;;;30.40;28.48;;;18.90;99.90;;;;;;5034022;28;20122;-72
2023/07/21 07:41:31;;;;;;;30.67;28.88;;;19.10;99.90;;;;;;5033210;28;20048;-71
2023/07/21 07:43:58;;;;;;;31.13;29.02;;;19.20;99.90;;;;;;5031833;28;20110;-71
2023/07/21 07:46:25;;;;;;;30.27;28.38;;;19.10;99.90;;;;;;5028928;28;20283;-72
2023/07/21 07:48:52;;;;;;;29.63;27.63;;;18.90;99.90;;;;;;5041388;28;20036;-72
2023/07/21 07:51:22;;;;;;;29.58;27.58;;;19.00;99.90;;;;;;5040610;28;20071;-72
2023/07/21 07:53:52;;;;;;;29.92;28.13;;;19.30;99.90;;;;;;5035032;28;20048;-71
2023/07/21 07:56:21;;;;;;;30.70;28.52;;;19.50;99.90;;;;;;5031329;28;20057;-71
2023/07/21 07:58:47;;;;;;;29.02;27.33;;;19.80;99.90;;;;;;5045338;28;20385;-71
2023/07/21 08:01:14;;;;;;;29.42;27.42;;;20.00;99.90;;;;;;5028971;28;20041;-71
2023/07/21 08:03:43;;;;;;;30.90;28.90;;;20.20;99.90;;;;;;5039480;28;20098;-71
2023/07/21 08:06:12;;;;;;;31.10;28.90;;;20.30;99.90;;;;;;5033896;28;20063;-71
2023/07/21 08:08:40;;;;;;;29.80;27.88;;;20.30;99.90;;;;;;5036157;28;20036;-71
2023/07/21 08:11:07;;;;;;;29.52;27.50;;;20.70;99.90;;;;;;5034965;28;20037;-70
2023/07/21 08:13:34;;;;;;;31.35;28.80;;;21.10;99.90;;;;;;5029565;28;20503;-70
2023/07/21 08:16:08;;;;;;;31.45;29.40;;;21.30;99.90;;;;;;5035823;28;20063;-71
2023/07/21 08:18:36;;;;;;;32.13;29.95;;;21.00;99.90;;;;;;5049896;28;20049;-70
2023/07/21 08:21:24;;;;;;;30.25;28.20;;;21.10;99.90;;;;;;5023188;28;20049;-72
2023/07/21 08:23:52;;;;;;;30.65;28.55;;;21.00;99.90;;;;;;5031085;28;20102;-72
2023/07/21 08:26:19;;;;;;;32.00;29.90;;;21.00;99.90;;;;;;5032581;28;20269;-71
2023/07/21 08:28:46;;;;;;;30.13;28.23;;;21.40;99.90;;;;;;5038068;28;20071;-70
2023/07/21 08:31:13;;;;;;;30.65;28.75;;;21.40;99.90;;;;;;5030076;28;20040;-72
2023/07/21 08:33:40;;;;;;;30.52;28.50;;;21.70;99.90;;;;;;5033835;28;20049;-71
2023/07/21 08:36:07;;;;;;;30.60;28.52;;;21.70;99.90;;;;;;5029808;28;20701;-71
2023/07/21 08:38:33;;;;;;;29.58;27.58;;;21.60;99.90;;;;;;5048186;28;20099;-71
2023/07/21 08:41:03;;;;;;;30.33;28.42;;;21.50;99.90;;;;;;5030236;28;20682;-70
2023/07/21 08:43:30;;;;;;;30.20;28.13;;;21.30;99.90;;;;;;5026506;28;20064;-70
2023/07/21 08:46:03;;;;;;;32.30;30.00;;;21.10;99.90;;;;;;5025057;28;20053;-69
2023/07/21 08:48:31;;;;;;;30.77;28.67;;;21.10;99.90;;;;;;5034778;28;20045;-71
2023/07/21 08:50:58;;;;;;;30.98;28.83;;;21.10;99.90;;;;;;5040744;28;20037;-72
2023/07/21 08:53:26;;;;;;;32.85;30.55;;;21.10;99.90;;;;;;5033601;28;20053;-72
2023/07/21 08:55:54;;;;;;;33.33;30.95;;;21.30;99.90;;;;;;5021851;28;20038;-72
2023/07/21 08:58:22;;;;;;;30.65;28.65;;;21.30;99.90;;;;;;5028183;28;20518;-71
2023/07/21 09:00:53;;;;;;;30.75;28.75;;;21.40;99.90;;;;;;5035924;28;20045;-71
2023/07/21 09:03:22;;;;;;;33.63;31.33;;;21.40;99.90;;;;;;5035211;28;20130;-76
2023/07/21 09:05:50;;;;;;;31.25;29.25;;;21.60;99.90;;;;;;5035851;28;20049;-73
2023/07/21 09:08:22;;;;;;;31.33;29.33;;;21.80;99.90;;;;;;5034742;28;20754;-72
2023/07/21 09:10:49;;;;;;;34.22;31.63;;;21.90;99.90;;;;;;5030394;28;20046;-72
2023/07/21 09:13:17;;;;;;;31.83;29.83;;;21.90;99.90;;;;;;5035157;28;20144;-70
2023/07/21 09:15:51;;;;;;;33.17;31.17;;;22.10;99.90;;;;;;5033505;28;20119;-73
2023/07/21 09:18:23;;;;;;;35.80;33.40;;;22.20;99.90;;;;;;5026196;28;20057;-72
2023/07/21 09:20:49;;;;;;;34.30;31.88;;;22.20;99.90;;;;;;5034273;28;20048;-72
2023/07/21 09:23:18;;;;;;;34.55;32.33;;;22.30;99.90;;;;;;5052197;28;20044;-70
2023/07/21 09:25:56;;;;;;;30.77;28.83;;;22.50;99.90;;;;;;5037720;28;20037;-72
2023/07/21 09:28:43;;;;;;;30.95;28.67;;;22.90;99.90;;;;;;5041084;28;23054;-71
2023/07/21 09:31:12;;;;;;;34.25;32.00;;;22.90;99.90;;;;;;5035851;28;20064;-72
2023/07/21 09:33:45;;;;;;;34.38;31.88;;;22.60;99.90;;;;;;5041803;28;20045;-71
2023/07/21 09:36:15;;;;;;;34.00;31.80;;;22.70;99.90;;;;;;5046377;28;20044;-70
2023/07/21 09:38:44;;;;;;;34.65;32.45;;;22.50;99.90;;;;;;5050256;28;20045;-70
2023/07/21 09:41:15;;;;;;;35.08;32.63;;;22.20;99.90;;;;;;5051015;28;20105;-71
2023/07/21 09:43:42;;;;;;;36.17;33.90;;;22.30;99.90;;;;;;5055082;28;20032;-70
2023/07/21 09:46:10;;;;;;;34.15;31.95;;;21.50;99.90;;;;;;5046452;28;20114;-70
2023/07/21 09:48:44;;;;;;;31.30;29.10;;;22.10;99.90;;;;;;5037523;28;20148;-71
2023/07/21 09:51:12;;;;;;;35.78;33.28;;;22.80;99.90;;;;;;5048792;28;20095;-71
2023/07/21 09:53:43;;;;;;;33.10;30.60;;;22.10;99.90;;;;;;5027837;28;20056;-71
2023/07/21 09:56:13;;;;;;;36.20;33.67;;;22.00;99.90;;;;;;5034763;28;20125;-70
2023/07/21 09:59:01;;;;;;;35.88;33.40;;;21.70;99.90;;;;;;5040426;28;20051;-72
2023/07/21 10:01:29;;;;;;;36.58;33.88;;;21.90;99.90;;;;;;5033570;28;20094;-72
2023/07/21 10:03:58;;;;;;;33.88;31.38;;;22.00;99.90;;;;;;5037217;28;20127;-71
2023/07/21 10:06:26;;;;;;;34.80;32.50;;;22.10;99.90;;;;;;5031634;28;20063;-71
2023/07/21 10:08:53;;;;;;;32.50;30.17;;;22.20;99.90;;;;;;5032478;28;20045;-72
2023/07/21 10:11:20;;;;;;;33.72;31.00;;;22.20;99.90;;;;;;5028118;28;20136;-72
2023/07/21 10:13:47;;;;;;;32.28;29.98;;;22.40;99.90;;;;;;5039668;28;20049;-71
2023/07/21 10:16:19;;;;;;;39.67;36.90;;;22.60;99.90;;;;;;5031066;28;20164;-71
2023/07/21 10:19:11;;;;;;;33.90;31.63;;;22.60;99.90;;;;;;5035885;28;20045;-70
2023/07/21 10:21:53;;;;;;;34.05;31.50;;;22.70;99.90;;;;;;5030180;28;20056;-69
2023/07/21 10:24:28;;;;;;;35.97;33.47;;;22.80;99.90;;;;;;5028623;28;20044;-71
2023/07/21 10:27:00;;;;;;;36.33;33.92;;;22.90;99.90;;;;;;5036125;28;20103;-72
2023/07/21 10:29:27;;;;;;;36.78;34.17;;;22.80;99.90;;;;;;5025132;28;20060;-72
2023/07/21 10:31:56;;;;;;;36.45;34.00;;;22.80;99.90;;;;;;5039869;28;20044;-71
2023/07/21 10:34:25;;;;;;;34.90;32.58;;;23.00;99.90;;;;;;5031866;28;20049;-69
2023/07/21 10:36:58;;;;;;;35.30;33.03;;;23.40;99.90;;;;;;5034585;28;20434;-69
2023/07/21 10:39:34;;;;;;;34.72;32.42;;;23.60;99.90;;;;;;5029461;28;20067;-70
2023/07/21 10:42:03;;;;;;;33.60;31.30;;;23.50;99.90;;;;;;5053661;28;20455;-70
2023/07/21 10:44:37;;;;;;;35.55;33.25;;;23.20;99.90;;;;;;5027238;28;20040;-71
2023/07/21 10:47:10;;;;;;;36.92;34.53;;;22.80;99.90;;;;;;5046396;28;20045;-72
2023/07/21 10:49:37;;;;;;;37.53;34.88;;;22.60;99.90;;;;;;5030828;28;20053;-71
2023/07/21 10:52:04;;;;;;;35.63;32.97;;;22.70;99.90;;;;;;5051124;28;20032;-70
2023/07/21 10:54:32;;;;;;;36.25;33.85;;;22.70;99.90;;;;;;5049378;28;20072;-71
2023/07/21 10:57:00;;;;;;;37.08;34.67;;;22.70;99.90;;;;;;5033279;28;20132;-70
2023/07/21 10:59:31;;;;;;;32.35;30.15;;;22.90;99.90;;;;;;5028523;28;20080;-71
2023/07/21 11:01:58;;;;;;;33.42;31.33;;;23.00;99.90;;;;;;5052094;28;20040;-70
2023/07/21 11:04:26;;;;;;;31.30;29.30;;;22.90;99.90;;;;;;5029252;28;20132;-71
2023/07/21 11:06:54;;;;;;;30.95;28.83;;;23.00;99.90;;;;;;5032469;28;20069;-70
2023/07/21 11:09:23;;;;;;;31.35;29.45;;;22.80;99.90;;;;;;5031211;28;20041;-70
2023/07/21 11:11:56;;;;;;;34.33;31.70;;;22.40;99.90;;;;;;5029545;28;20042;-70
2023/07/21 11:14:27;;;;;;;32.90;30.83;;;22.30;99.90;;;;;;5028415;28;20063;-70
2023/07/21 11:17:00;;;;;;;31.02;29.13;;;22.30;99.90;;;;;;5037561;28;20041;-71
2023/07/21 11:19:29;;;;;;;30.50;28.60;;;22.30;99.90;;;;;;5032886;28;20115;-69
2023/07/21 11:21:57;;;;;;;31.58;29.48;;;22.30;99.90;;;;;;5035627;28;20040;-71
2023/07/21 11:24:31;;;;;;;30.88;28.98;;;22.20;99.90;;;;;;5027160;28;20115;-71
2023/07/21 11:27:07;;;;;;;31.58;29.42;;;22.20;99.90;;;;;;5029831;28;20076;-72
2023/07/21 11:29:40;;;;;;;30.40;28.48;;;22.20;99.90;;;;;;5031460;28;20515;-73
2023/07/21 11:32:17;;;;;;;31.10;28.95;;;22.00;99.90;;;;;;5039096;28;20037;-73
2023/07/21 11:34:45;;;;;;;31.13;29.02;;;21.80;99.90;;;;;;5035286;28;20049;-74
2023/07/21 11:37:14;;;;;;;32.85;30.75;;;21.80;99.90;;;;;;5036865;28;20715;-74
2023/07/21 11:39:41;;;;;;;31.35;29.30;;;21.60;99.90;;;;;;5047990;28;20560;-74
2023/07/21 11:42:08;;;;;;;32.08;30.02;;;21.90;99.90;;;;;;5039257;28;20047;-75
2023/07/21 11:44:35;;;;;;;32.58;30.38;;;22.00;99.90;;;;;;5036062;28;20061;-75
2023/07/21 11:47:12;;;;;;;32.00;29.85;;;22.00;99.90;;;;;;5035502;28;20075;-74
2023/07/21 11:49:44;;;;;;;38.05;35.75;;;22.10;99.90;;;;;;5022740;28;21368;-74
2023/07/21 11:52:24;;;;;;;33.53;31.23;;;22.40;99.90;;;;;;5029052;28;20037;-74
2023/07/21 11:54:52;;;;;;;30.33;28.33;;;22.80;99.90;;;;;;5036802;28;20119;-74
2023/07/21 11:57:19;;;;;;;32.38;30.27;;;22.80;99.90;;;;;;5028018;28;20796;-75
2023/07/21 11:59:47;;;;;;;35.90;33.47;;;22.90;99.90;;;;;;5036511;28;20420;-75
2023/07/21 12:02:16;;;;;;;34.80;32.58;;;23.00;99.90;;;;;;5038730;28;20132;-75
2023/07/21 12:04:44;;;;;;;35.70;33.40;;;23.10;99.90;;;;;;5031590;28;20124;-74
2023/07/21 12:07:10;;;;;;;37.72;35.17;;;23.00;99.90;;;;;;5031158;28;20064;-75
2023/07/21 12:09:38;;;;;;;35.88;33.67;;;22.90;99.90;;;;;;5028879;28;20049;-74
2023/07/21 12:12:07;;;;;;;36.50;34.15;;;22.90;99.90;;;;;;5033896;28;20036;-73
2023/07/21 12:14:34;;;;;;;34.65;32.55;;;23.00;99.90;;;;;;5029243;28;20055;-74
2023/07/21 12:17:01;;;;;;;35.22;33.10;;;23.20;99.90;;;;;;5032405;28;20101;-74
2023/07/21 12:19:28;;;;;;;37.17;34.97;;;23.10;99.90;;;;;;5030823;28;20037;-74
2023/07/21 12:21:55;;;;;;;35.40;33.25;;;22.90;99.90;;;;;;5025388;28;20042;-75
2023/07/21 12:24:22;;;;;;;36.17;34.08;;;23.00;99.90;;;;;;5029562;28;20457;-74
2023/07/21 12:26:49;;;;;;;34.90;32.90;;;23.30;99.90;;;;;;5044238;28;20658;-74
2023/07/21 12:29:16;;;;;;;39.05;36.72;;;23.40;99.90;;;;;;5032354;28;20045;-74
2023/07/21 12:31:54;;;;;;;36.97;34.78;;;23.30;99.90;;;;;;5040147;28;20045;-74
2023/07/21 12:34:22;;;;;;;34.70;32.50;;;23.30;99.90;;;;;;5060058;28;20068;-72
2023/07/21 12:36:49;;;;;;;35.22;33.13;;;22.80;99.90;;;;;;5056276;28;20056;-73
2023/07/21 12:39:17;;;;;;;36.45;34.17;;;22.00;99.90;;;;;;5071536;28;20108;-74
2023/07/21 12:41:44;;;;;;;39.17;36.67;;;21.60;99.90;;;;;;5052969;28;20056;-72